createdAt,value
2022-11-05T00:00:18.785Z,99466.59
2022-11-05T00:02:45.845Z,99480.69
2022-11-05T00:05:13.083Z,99484.03
2022-11-05T00:07:45.722Z,99476.97
2022-11-05T00:10:21.087Z,99484.03
2022-11-05T00:12:49.613Z,99484.03
2022-11-05T00:15:17.346Z,99485.66
2022-11-05T00:17:44.057Z,99489.81
2022-11-05T00:20:11.392Z,99492.31
2022-11-05T00:22:38.097Z,99500.84
2022-11-05T00:25:05.677Z,99494.06
2022-11-05T00:27:33.080Z,99495.94
2022-11-05T00:30:01.377Z,99505.53
2022-11-05T00:32:28.056Z,99503.66
2022-11-05T00:34:55.128Z,99503.03
2022-11-05T00:37:21.820Z,99510.31
2022-11-05T00:39:48.731Z,99508.66
2022-11-05T00:42:15.468Z,99509.50
2022-11-05T00:44:42.180Z,99516.53
2022-11-05T00:47:10.448Z,99514.25
2022-11-05T00:49:37.260Z,99507.78
2022-11-05T00:52:05.170Z,99517.97
2022-11-05T00:54:31.873Z,99515.28
2022-11-05T00:57:04.357Z,99518.38
2022-11-05T00:59:31.834Z,99518.59
2022-11-05T01:01:58.740Z,99520.63
2022-11-05T01:04:27.229Z,99525.84
2022-11-05T01:06:55.291Z,99522.56
2022-11-05T01:09:22.253Z,99525.69
2022-11-05T01:11:49.021Z,99532.97
2022-11-05T01:14:16.157Z,99534.81
2022-11-05T01:16:42.956Z,99536.09
2022-11-05T01:19:11.459Z,99535.88
2022-11-05T01:21:39.593Z,99544.59
2022-11-05T01:24:07.709Z,99539.44
2022-11-05T01:26:34.410Z,99546.03
2022-11-05T01:29:01.148Z,99547.69
2022-11-05T01:31:28.017Z,99558.91
2022-11-05T01:33:55.238Z,99562.44
2022-11-05T01:36:22.046Z,99556.19
2022-11-05T01:38:50.181Z,99559.13
2022-11-05T01:41:17.246Z,99561.41
2022-11-05T01:43:49.174Z,99559.53
2022-11-05T01:46:22.938Z,99560.16
2022-11-05T01:49:00.086Z,99559.94
2022-11-05T01:51:29.905Z,99565.78
2022-11-05T01:54:04.179Z,99572.44
2022-11-05T01:56:38.151Z,99562.06
2022-11-05T01:59:11.631Z,99571.63
2022-11-05T02:01:39.200Z,99566.22
2022-11-05T02:04:14.745Z,99574.75
2022-11-05T02:06:42.328Z,99577.47
2022-11-05T02:09:18.595Z,99582.03
2022-11-05T02:11:46.674Z,99582.25
2022-11-05T02:14:13.373Z,99589.28
2022-11-05T02:16:50.977Z,99584.28
2022-11-05T02:19:57.124Z,99593.81
2022-11-05T02:23:05.772Z,99598.19
2022-11-05T02:26:19.183Z,99589.66
2022-11-05T02:29:33.621Z,99588.81
2022-11-05T02:32:13.053Z,99593.38
2022-11-05T02:34:55.423Z,99593.19
2022-11-05T02:37:38.263Z,99588.59
2022-11-05T02:40:17.281Z,99585.69
2022-11-05T02:42:57.218Z,99592.16
2022-11-05T02:45:42.439Z,99589.44
2022-11-05T02:48:23.097Z,99595.66
2022-11-05T02:50:59.036Z,99600.03
2022-11-05T02:53:39.513Z,99598.97
2022-11-05T02:56:17.617Z,99598.16
2022-11-05T02:58:44.465Z,99598.16
2022-11-05T03:01:12.534Z,99598.97
2022-11-05T03:03:46.449Z,99597.94
2022-11-05T03:06:46.286Z,99593.59
2022-11-05T03:09:43.662Z,99598.78
2022-11-05T03:12:27.752Z,99599.22
2022-11-05T03:15:08.128Z,99603.59
2022-11-05T03:17:45.489Z,99605.25
2022-11-05T03:20:22.931Z,99612.91
2022-11-05T03:23:00.443Z,99609.59
2022-11-05T03:25:31.517Z,99614.63
2022-11-05T03:28:06.474Z,99609.66
2022-11-05T03:30:39.322Z,99619.19
2022-11-05T03:33:15.445Z,99616.47
2022-11-05T03:35:51.007Z,99612.72
2022-11-05T03:38:26.782Z,99621.06
2022-11-05T03:40:59.044Z,99626.66
2022-11-05T03:43:35.583Z,99635.59
2022-11-05T03:46:09.475Z,99642.28
2022-11-05T03:48:44.242Z,99641.66
2022-11-05T03:51:25.345Z,99639.59
2022-11-05T03:53:59.354Z,99646.84
2022-11-05T03:56:33.927Z,99652.25
2022-11-05T03:59:04.723Z,99653.31
2022-11-05T04:01:32.432Z,99653.94
2022-11-05T04:03:59.827Z,99655.81
2022-11-05T04:06:28.254Z,99660.38
2022-11-05T04:08:55.298Z,99665.34
2022-11-05T04:11:22.059Z,99662.03
2022-11-05T04:13:48.791Z,99659.34
2022-11-05T04:16:15.580Z,99675.72
2022-11-05T04:18:43.161Z,99671.56
2022-11-05T04:21:11.042Z,99673.00
2022-11-05T04:23:39.225Z,99678.00
2022-11-05T04:26:05.937Z,99676.13
2022-11-05T04:28:32.669Z,99675.75
2022-11-05T04:30:59.400Z,99683.22
2022-11-05T04:33:26.332Z,99675.53
2022-11-05T04:35:53.029Z,99681.97
2022-11-05T04:38:20.626Z,99685.09
2022-11-05T04:40:48.888Z,99682.41
2022-11-05T04:43:18.921Z,99688.44
2022-11-05T04:45:46.235Z,99691.13
2022-11-05T04:48:13.180Z,99701.72
2022-11-05T04:50:40.174Z,99698.59
2022-11-05T04:53:06.918Z,99702.13
2022-11-05T04:55:33.891Z,99709.19
2022-11-05T04:58:01.952Z,99709.81
2022-11-05T05:00:29.019Z,99712.09
2022-11-05T05:02:55.759Z,99716.63
2022-11-05T05:05:22.612Z,99716.22
2022-11-05T05:07:49.575Z,99718.91
2022-11-05T05:10:16.512Z,99724.69
2022-11-05T05:12:43.253Z,99715.75
2022-11-05T05:15:11.941Z,99719.91
2022-11-05T05:17:38.789Z,99724.06
2022-11-05T05:20:06.657Z,99726.31
2022-11-05T05:22:33.393Z,99730.69
2022-11-05T05:25:00.430Z,99733.81
2022-11-05T05:27:28.229Z,99736.94
2022-11-05T05:29:55.550Z,99738.00
2022-11-05T05:32:25.265Z,99738.00
2022-11-05T05:34:52.393Z,99740.31
2022-11-05T05:37:19.921Z,99733.88
2022-11-05T05:39:46.793Z,99735.75
2022-11-05T05:42:14.282Z,99731.00
2022-11-05T05:44:41.426Z,99730.56
2022-11-05T05:47:08.308Z,99742.00
2022-11-05T05:49:36.340Z,99738.69
2022-11-05T05:52:03.407Z,99741.38
2022-11-05T05:54:33.528Z,99745.97
2022-11-05T05:57:02.868Z,99746.78
2022-11-05T05:59:29.640Z,99748.69
2022-11-05T06:01:56.539Z,99752.41
2022-11-05T06:04:23.365Z,99765.91
2022-11-05T06:06:52.425Z,99763.22
2022-11-05T06:09:19.121Z,99769.25
2022-11-05T06:11:46.064Z,99774.44
2022-11-05T06:14:13.457Z,99775.47
2022-11-05T06:16:40.624Z,99773.41
2022-11-05T06:19:10.424Z,99779.19
2022-11-05T06:21:37.419Z,99788.78
2022-11-05T06:24:06.696Z,99791.69
2022-11-05T06:26:34.049Z,99804.13
2022-11-05T06:29:03.763Z,99801.22
2022-11-05T06:31:33.813Z,99809.97
2022-11-05T06:34:00.662Z,99807.03
2022-11-05T06:36:27.389Z,99814.53
2022-11-05T06:38:54.480Z,99817.88
2022-11-05T06:41:25.610Z,99825.34
2022-11-05T06:43:52.401Z,99822.84
2022-11-05T06:46:19.244Z,99824.72
2022-11-05T06:48:47.328Z,99827.19
2022-11-05T06:51:14.104Z,99831.16
2022-11-05T06:53:41.294Z,99830.34
2022-11-05T06:56:08.492Z,99830.50
2022-11-05T06:58:37.418Z,99844.84
2022-11-05T07:01:08.227Z,99849.03
2022-11-05T07:03:35.783Z,99856.72
2022-11-05T07:06:06.353Z,99861.91
2022-11-05T07:08:36.297Z,99874.78
2022-11-05T07:11:04.105Z,99875.59
2022-11-05T07:13:31.322Z,99876.84
2022-11-05T07:15:59.760Z,99880.16
2022-11-05T07:18:27.562Z,99887.84
2022-11-05T07:20:54.827Z,99895.16
2022-11-05T07:23:22.062Z,99894.31
2022-11-05T07:25:49.000Z,99902.19
2022-11-05T07:28:17.556Z,99903.88
2022-11-05T07:30:52.389Z,99904.47
2022-11-05T07:33:20.711Z,99913.63
2022-11-05T07:35:47.475Z,99915.06
2022-11-05T07:38:14.478Z,99910.28
2022-11-05T07:40:41.280Z,99917.97
2022-11-05T07:43:08.236Z,99920.25
2022-11-05T07:45:35.048Z,99918.59
2022-11-05T07:48:04.207Z,99916.91
2022-11-05T07:50:36.469Z,99926.09
2022-11-05T07:53:07.716Z,99937.91
2022-11-05T07:55:35.059Z,99939.16
2022-11-05T07:58:03.702Z,99948.09
2022-11-05T08:00:31.255Z,99957.47
2022-11-05T08:03:20.724Z,99952.88
2022-11-05T08:05:52.702Z,99949.16
2022-11-05T08:08:20.336Z,99964.72
2022-11-05T08:10:53.089Z,99963.50
2022-11-05T08:13:21.116Z,99963.06
2022-11-05T08:15:48.150Z,99964.31
2022-11-05T08:18:24.619Z,99967.66
2022-11-05T08:21:19.073Z,99964.94
2022-11-05T08:23:52.522Z,99964.53
2022-11-05T08:32:39.824Z,99978.66
2022-11-05T08:40:37.643Z,99982.19
2022-11-05T08:47:37.521Z,99984.88
2022-11-05T08:54:59.745Z,99993.22
2022-11-05T08:57:38.009Z,99998.19
2022-11-05T09:00:06.529Z,100006.13
2022-11-05T09:02:33.756Z,100005.25
2022-11-05T09:05:00.773Z,100014.63
2022-11-05T09:07:27.506Z,100007.75
2022-11-05T09:09:54.558Z,100016.69
2022-11-05T09:12:23.457Z,100016.91
2022-11-05T09:14:53.979Z,100015.66
2022-11-05T09:17:21.969Z,100021.91
2022-11-05T09:19:49.140Z,100021.72
2022-11-05T09:22:21.297Z,100026.50
2022-11-05T09:24:48.456Z,100036.47
2022-11-05T09:27:15.259Z,100025.22
2022-11-05T09:29:42.615Z,100034.78
2022-11-05T09:32:10.882Z,100032.31
2022-11-05T09:34:37.951Z,100033.31
2022-11-05T09:37:05.155Z,100032.06
2022-11-05T09:39:34.769Z,100037.47
2022-11-05T09:42:07.143Z,100041.25
2022-11-05T09:44:47.012Z,100035.81
2022-11-05T09:47:22.369Z,100042.88
2022-11-05T09:49:56.005Z,100039.31
2022-11-05T09:52:27.990Z,100047.63
2022-11-05T09:54:57.230Z,100044.03
2022-11-05T09:57:30.103Z,100048.44
2022-11-05T10:00:02.423Z,100052.56
2022-11-05T10:02:44.221Z,100061.81
2022-11-05T10:05:18.877Z,100061.81
2022-11-05T10:07:51.468Z,100059.69
2022-11-05T10:10:42.077Z,100063.28
2022-11-05T10:13:23.515Z,100067.22
2022-11-05T10:16:01.147Z,100071.81
2022-11-05T10:18:34.966Z,100076.41
2022-11-05T10:21:03.409Z,100087.00
2022-11-05T10:23:30.494Z,100083.88
2022-11-05T10:26:06.359Z,100094.28
2022-11-05T10:28:35.136Z,100094.06
2022-11-05T10:31:14.127Z,100098.63
2022-11-05T10:33:47.435Z,100103.81
2022-11-05T10:36:23.364Z,100107.97
2022-11-05T10:38:51.502Z,100093.84
2022-11-05T10:41:40.867Z,100101.31
2022-11-05T10:44:30.830Z,100105.47
2022-11-05T10:47:45.003Z,100098.19
2022-11-05T10:50:21.867Z,100100.72
2022-11-05T10:53:01.410Z,100117.34
2022-11-05T10:55:36.839Z,100103.00
2022-11-05T10:58:11.092Z,100100.09
2022-11-05T11:00:38.984Z,100102.78
2022-11-05T11:03:39.652Z,100097.38
2022-11-05T11:06:23.830Z,100104.91
2022-11-05T11:08:53.668Z,100104.88
2022-11-05T11:11:32.360Z,100101.38
2022-11-05T11:14:05.137Z,100108.63
2022-11-05T11:16:41.379Z,100112.53
2022-11-05T11:19:26.383Z,100114.38
2022-11-05T11:22:19.378Z,100119.19
2022-11-05T11:24:50.051Z,100118.75
2022-11-05T11:27:24.101Z,100127.72
2022-11-05T11:30:00.000Z,100122.91
2022-11-05T11:32:36.245Z,100126.88
2022-11-05T11:35:08.477Z,100112.25
2022-11-05T11:37:40.168Z,100113.72
2022-11-05T11:40:19.134Z,100118.28
2022-11-05T11:42:49.477Z,100114.53
2022-11-05T11:45:28.107Z,100120.84
2022-11-05T11:47:57.137Z,100111.44
2022-11-05T11:50:39.273Z,100107.47
2022-11-05T11:53:29.441Z,100118.50
2022-11-05T11:56:13.954Z,100119.09
2022-11-05T11:58:46.343Z,100111.16
2022-11-05T12:01:45.884Z,100114.94
2022-11-05T12:04:34.461Z,100111.06
2022-11-05T12:07:25.023Z,100120.84
2022-11-05T12:10:23.265Z,100109.59
2022-11-05T12:13:12.620Z,100119.41
2022-11-05T12:15:51.505Z,100113.78
2022-11-05T12:18:33.538Z,100109.00
2022-11-05T12:21:09.607Z,100109.59
2022-11-05T12:24:14.675Z,100102.47
2022-11-05T12:27:01.865Z,100104.53
2022-11-05T12:29:47.850Z,100105.19
2022-11-05T12:33:07.538Z,100101.81
2022-11-05T12:35:57.421Z,100096.97
2022-11-05T12:38:48.733Z,100108.66
2022-11-05T12:41:26.944Z,100093.84
2022-11-05T12:44:27.392Z,100093.19
2022-11-05T12:47:17.607Z,100100.69
2022-11-05T12:50:07.043Z,100085.50
2022-11-05T12:53:01.495Z,100093.41
2022-11-05T12:55:37.637Z,100091.28
2022-11-05T12:58:12.965Z,100095.81
2022-11-05T13:00:53.121Z,100092.25
2022-11-05T13:03:34.251Z,100095.97
2022-11-05T13:06:07.456Z,100099.53
2022-11-05T13:08:44.686Z,100106.00
2022-11-05T13:11:21.389Z,100103.00
2022-11-05T13:14:08.924Z,100102.56
2022-11-05T13:16:43.061Z,100105.25
2022-11-05T13:19:20.160Z,100101.72
2022-11-05T13:21:54.579Z,100109.25
2022-11-05T13:24:28.536Z,100098.22
2022-11-05T13:27:05.316Z,100107.19
2022-11-05T13:29:49.412Z,100106.59
2022-11-05T13:32:29.056Z,100112.00
2022-11-05T13:34:56.745Z,100112.66
2022-11-05T13:37:30.663Z,100117.44
2022-11-05T13:40:03.336Z,100111.00
2022-11-05T13:43:06.935Z,100111.00
2022-11-05T13:46:06.058Z,100121.63
2022-11-05T13:48:58.762Z,100113.50
2022-11-05T13:52:45.314Z,100116.63
2022-11-05T13:55:37.368Z,100113.50
2022-11-05T13:58:36.175Z,100116.88
2022-11-05T14:01:17.867Z,100120.84
2022-11-05T14:03:49.905Z,100119.19
2022-11-05T14:06:27.073Z,100131.69
2022-11-05T14:09:01.093Z,100130.25
2022-11-05T14:11:34.294Z,100129.91
2022-11-05T14:14:05.249Z,100132.41
2022-11-05T14:16:50.709Z,100135.13
2022-11-05T14:20:23.668Z,100122.00
2022-11-05T14:22:51.854Z,100124.56
2022-11-05T14:25:56.702Z,100128.06
2022-11-05T14:28:44.111Z,100121.63
2022-11-05T14:31:54.472Z,100124.72
2022-11-05T14:34:39.263Z,100124.13
2022-11-05T14:37:30.749Z,100132.25
2022-11-05T14:40:28.719Z,100125.63
2022-11-05T14:42:59.950Z,100127.91
2022-11-05T14:45:32.384Z,100129.59
2022-11-05T14:48:02.996Z,100142.94
2022-11-05T14:50:36.573Z,100136.91
2022-11-05T14:53:29.891Z,100143.81
2022-11-05T14:56:03.101Z,100142.75
2022-11-05T14:58:35.063Z,100140.03
2022-11-05T15:01:04.998Z,100135.47
2022-11-05T15:04:00.216Z,100142.53
2022-11-05T15:06:32.631Z,100135.69
2022-11-05T15:09:29.262Z,100148.38
2022-11-05T15:12:13.000Z,100151.69
2022-11-05T15:14:54.678Z,100148.81
2022-11-05T15:17:27.189Z,100152.13
2022-11-05T15:19:54.815Z,100146.09
2022-11-05T15:22:36.574Z,100156.69
2022-11-05T15:25:19.139Z,100162.09
2022-11-05T15:28:03.644Z,100154.41
2022-11-05T15:30:31.101Z,100157.75
2022-11-05T15:33:10.612Z,100164.19
2022-11-05T15:35:40.563Z,100153.78
2022-11-05T15:38:28.197Z,100156.09
2022-11-05T15:41:03.212Z,100153.78
2022-11-05T15:43:30.224Z,100156.06
2022-11-05T15:46:04.385Z,100158.34
2022-11-05T15:48:32.444Z,100155.84
2022-11-05T15:50:59.412Z,100160.44
2022-11-05T15:54:23.782Z,100162.91
2022-11-05T15:57:02.824Z,100162.69
2022-11-05T15:59:30.617Z,100163.53
2022-11-05T16:02:05.499Z,100173.09
2022-11-05T16:04:35.282Z,100172.44
2022-11-05T16:07:11.897Z,100172.03
2022-11-05T16:09:42.716Z,100163.91
2022-11-05T16:12:24.969Z,100162.25
2022-11-05T16:14:59.145Z,100162.88
2022-11-05T16:17:31.385Z,100165.34
2022-11-05T16:19:59.148Z,100167.63
2022-11-05T16:22:44.868Z,100170.31
2022-11-05T16:25:27.938Z,100189.00
2022-11-05T16:27:57.020Z,100186.06
2022-11-05T16:30:25.360Z,100193.13
2022-11-05T16:32:53.192Z,100200.16
2022-11-05T16:35:24.385Z,100195.16
2022-11-05T16:37:52.632Z,100189.50
2022-11-05T16:40:23.179Z,100191.09
2022-11-05T16:42:52.657Z,100187.47
2022-11-05T16:45:24.546Z,100204.22
2022-11-05T16:47:54.032Z,100203.97
2022-11-05T16:50:26.743Z,100207.63
2022-11-05T16:52:53.999Z,100200.38
2022-11-05T16:55:21.331Z,100210.41
2022-11-05T16:57:52.038Z,100205.63
2022-11-05T17:00:22.901Z,100200.22
2022-11-05T17:02:50.220Z,100191.91
2022-11-05T17:05:23.148Z,100200.56
2022-11-05T17:07:50.777Z,100204.03
2022-11-05T17:10:18.298Z,100196.34
2022-11-05T17:12:45.342Z,100197.31
2022-11-05T17:15:19.888Z,100204.59
2022-11-05T17:17:48.953Z,100217.69
2022-11-05T17:20:27.687Z,100223.06
2022-11-05T17:22:54.902Z,100217.69
2022-11-05T17:25:22.454Z,100222.44
2022-11-05T17:27:49.947Z,100219.59
2022-11-05T17:30:17.487Z,100230.31
2022-11-05T17:32:44.454Z,100229.16
2022-11-05T17:35:13.957Z,100230.56
2022-11-05T17:37:41.496Z,100241.28
2022-11-05T17:40:14.360Z,100246.84
2022-11-05T17:42:41.764Z,100250.66
2022-11-05T17:45:10.843Z,100244.25
2022-11-05T17:47:38.784Z,100247.69
2022-11-05T17:50:09.853Z,100250.19
2022-11-05T17:52:38.570Z,100249.81
2022-11-05T17:55:07.571Z,100259.94
2022-11-05T17:57:34.591Z,100254.88
2022-11-05T18:00:01.413Z,100257.09
2022-11-05T18:02:37.711Z,100260.19
2022-11-05T18:05:06.339Z,100258.03
2022-11-05T18:07:33.220Z,100263.19
2022-11-05T18:10:01.775Z,100258.75
2022-11-05T18:12:28.687Z,100266.09
2022-11-05T18:14:56.162Z,100270.63
2022-11-05T18:17:23.106Z,100270.63
2022-11-05T18:19:50.250Z,100275.81
2022-11-05T18:22:18.442Z,100284.63
2022-11-05T18:24:45.462Z,100278.88
2022-11-05T18:27:14.319Z,100278.06
2022-11-05T18:29:41.675Z,100264.69
2022-11-05T18:32:08.520Z,100279.63
2022-11-05T18:34:35.881Z,100270.44
2022-11-05T18:37:03.141Z,100276.19
2022-11-05T18:39:33.128Z,100285.59
2022-11-05T18:42:00.000Z,100285.59
2022-11-05T18:44:28.612Z,100283.09
2022-11-05T18:46:58.368Z,100270.00
2022-11-05T18:49:26.729Z,100269.22
2022-11-05T18:51:53.759Z,100274.38
2022-11-05T18:54:21.193Z,100261.16
2022-11-05T18:56:48.091Z,100269.50
2022-11-05T19:02:08.800Z,100267.03
2022-11-05T19:04:36.534Z,100262.59
2022-11-05T19:07:05.564Z,100270.03
2022-11-05T19:09:33.585Z,100269.84
2022-11-05T19:12:00.611Z,100276.34
2022-11-05T19:14:27.793Z,100275.56
2022-11-05T19:16:54.748Z,100284.41
2022-11-05T19:19:22.911Z,100289.00
2022-11-05T19:21:50.093Z,100276.16
2022-11-05T19:24:17.437Z,100276.41
2022-11-05T19:26:44.951Z,100277.19
2022-11-05T19:29:11.858Z,100282.50
2022-11-05T19:31:39.093Z,100281.28
2022-11-05T19:34:05.935Z,100286.59
2022-11-05T19:36:36.803Z,100277.16
2022-11-05T19:39:07.296Z,100274.47
2022-11-05T19:41:34.669Z,100272.41
2022-11-05T19:44:01.999Z,100267.38
2022-11-05T19:46:30.949Z,100259.69
2022-11-05T19:48:59.158Z,100262.38
2022-11-05T19:51:28.733Z,100280.47
2022-11-05T19:53:58.698Z,100274.38
2022-11-05T19:56:28.562Z,100275.31
2022-11-05T19:58:57.315Z,100276.25
2022-11-05T20:01:26.837Z,100288.53
2022-11-05T20:03:55.507Z,100291.41
2022-11-05T20:06:26.805Z,100291.22
2022-11-05T20:09:23.386Z,100291.75
2022-11-05T20:12:01.153Z,100295.88
2022-11-05T20:14:38.370Z,100295.78
2022-11-05T21:08:07.638Z,100301.59
2022-11-05T21:11:09.723Z,100310.75
2022-11-05T21:13:38.398Z,100308.97
2022-11-05T21:16:20.817Z,100310.84
2022-11-05T21:18:49.920Z,100305.72
2022-11-05T21:21:19.472Z,100302.22
2022-11-05T21:23:48.046Z,100304.28
2022-11-05T21:26:15.869Z,100309.28
2022-11-05T21:28:43.206Z,100307.59
2022-11-05T21:31:10.903Z,100310.94
2022-11-05T21:33:38.324Z,100305.38
2022-11-05T21:36:09.840Z,100297.50
2022-11-05T21:38:37.449Z,100301.84
2022-11-05T21:41:08.664Z,100305.50
2022-11-05T21:43:35.550Z,100297.75
2022-11-05T21:46:04.240Z,100301.44
2022-11-05T21:48:31.562Z,100307.03
2022-11-05T21:50:58.392Z,100309.91
2022-11-05T21:53:25.537Z,100316.66
2022-11-05T21:55:52.262Z,100314.69
2022-11-05T21:58:20.634Z,100305.34
2022-11-05T22:00:47.401Z,100300.13
2022-11-05T22:03:14.373Z,100298.41
2022-11-05T22:05:41.216Z,100290.31
2022-11-05T22:08:07.924Z,100284.97
2022-11-05T22:10:34.677Z,100293.41
2022-11-05T22:13:01.976Z,100288.22
2022-11-05T22:15:30.136Z,100293.75
2022-11-05T22:17:57.052Z,100287.34
2022-11-05T22:20:23.834Z,100286.00
2022-11-05T22:22:50.555Z,100292.91
2022-11-05T22:25:17.584Z,100292.38
2022-11-05T22:27:44.311Z,100293.53
2022-11-05T22:30:13.523Z,100289.00
2022-11-05T22:32:41.909Z,100298.38
2022-11-05T22:35:09.823Z,100296.31
2022-11-05T22:37:36.536Z,100288.25
2022-11-05T22:40:03.876Z,100290.13
2022-11-05T22:42:30.664Z,100284.78
2022-11-05T22:44:57.397Z,100271.88
2022-11-05T22:47:24.189Z,100272.03
2022-11-05T22:49:52.477Z,100273.59
2022-11-05T22:52:19.196Z,100280.81
2022-11-05T22:54:46.850Z,100278.47
2022-11-05T22:57:13.561Z,100276.81
2022-11-05T22:59:40.715Z,100281.81
2022-11-05T23:02:10.081Z,100274.06
2022-11-05T23:04:37.889Z,100278.88
2022-11-05T23:07:07.080Z,100279.00
2022-11-05T23:09:35.349Z,100277.06
2022-11-05T23:12:05.434Z,100277.59
2022-11-05T23:14:32.960Z,100275.72
2022-11-05T23:16:59.935Z,100277.88
2022-11-05T23:19:28.025Z,100279.34
2022-11-05T23:21:54.831Z,100274.13
2022-11-05T23:24:22.894Z,100278.28
2022-11-05T23:26:50.239Z,100267.72
2022-11-05T23:29:17.428Z,100271.88
2022-11-05T23:31:44.613Z,100264.03
2022-11-05T23:34:11.605Z,100270.06
2022-11-05T23:36:38.336Z,100263.72
2022-11-05T23:39:05.056Z,100264.88
2022-11-05T23:41:33.151Z,100256.84
2022-11-05T23:43:59.849Z,100257.69
2022-11-05T23:46:26.845Z,100254.19
2022-11-05T23:48:53.757Z,100254.31
2022-11-05T23:51:20.506Z,100253.56
2022-11-05T23:53:47.537Z,100253.56
2022-11-05T23:56:15.980Z,100253.56
2022-11-05T23:58:44.298Z,100247.03
